PWSweather.com
Personal Weather Stations
Station Observations
KIDNAMPA57
Canyon County Idaho, Nampa, ID 83687

Canyon County IdahoNampa, ID 83687

Lat: 43.587235, Lon: -116.49831979999999

Elevation: 2615

Station Type: Davis Vantage Pro 2

www.rockinglweather.com

High Low Average
Temperature 54.7°F12.6°C 36.5°F2.5°C 43.0°F6.1°C
Dew Point 46.6°F8.1°C 35.2°F1.8°C 39.1°F3.9°C
Winds 21.0 mph 33.8 kmh Calm Calm 6.0 mph SSE9.7 kmh SSE
Wind Gusts 25.0 mph40.2 kmh 3.0 mph4.8 kmh 12.0 mph19.3 kmh
Humidity 96% 67% 87%
Pressure 29.59 in1002.0 mb 29.19 in988.5 mb -
Precipitation 0.00 in0.0 mm - -
Hour Temp Dew Point Humidity Winds Wind Gusts Pressure Precip Precip Rate Daily Precip Total
12:00 AM 37.2°F2.9°C 35.9°F2.2°C 95% 2.0 mph SE3.2 kmh SE 5.0 mph8.0 kmh 29.58 in1001.7 mb 0.00 in0.0 mm 0.00 in0.0 mm 0.00 in0.0 mm
12:05 AM 37.1°F2.8°C 35.8°F2.1°C 95% 2.0 mph SE3.2 kmh SE 4.0 mph6.4 kmh 29.58 in1001.7 mb 0.01 in0.3 mm 0.12 in3.0 mm 0.01 in0.3 mm
12:10 AM 37.1°F2.8°C 35.8°F2.1°C 95% 2.0 mph SE3.2 kmh SE 4.0 mph6.4 kmh 29.58 in1001.7 mb 0.01 in0.3 mm 0.00 in0.0 mm 0.01 in0.3 mm
12:15 AM 37.0°F2.8°C 35.7°F2.1°C 95% 1.0 mph SE1.6 kmh SE 4.0 mph6.4 kmh 29.58 in1001.7 mb 0.01 in0.3 mm 0.00 in0.0 mm 0.01 in0.3 mm
12:20 AM 37.0°F2.8°C 35.7°F2.1°C 95% 5.0 mph SE8.0 kmh SE 5.0 mph8.0 kmh 29.58 in1001.7 mb 0.01 in0.3 mm 0.00 in0.0 mm 0.01 in0.3 mm
12:25 AM 37.0°F2.8°C 35.7°F2.1°C 95% 3.0 mph SE4.8 kmh SE 5.0 mph8.0 kmh 29.58 in1001.7 mb 0.01 in0.3 mm 0.00 in0.0 mm 0.01 in0.3 mm
12:30 AM 37.0°F2.8°C 35.7°F2.1°C 95% 2.0 mph SE3.2 kmh SE 5.0 mph8.0 kmh 29.58 in1001.7 mb 0.01 in0.3 mm 0.00 in0.0 mm 0.01 in0.3 mm
12:35 AM 36.9°F2.7°C 35.6°F2.0°C 95% 4.0 mph SE6.4 kmh SE 5.0 mph8.0 kmh 29.59 in1002.0 mb 0.01 in0.3 mm 0.00 in0.0 mm 0.01 in0.3 mm
12:40 AM 36.9°F2.7°C 35.6°F2.0°C 95% 3.0 mph SE4.8 kmh SE 5.0 mph8.0 kmh 29.59 in1002.0 mb 0.01 in0.3 mm 0.00 in0.0 mm 0.01 in0.3 mm
12:45 AM 36.9°F2.7°C 35.6°F2.0°C 95% 3.0 mph SE4.8 kmh SE 5.0 mph8.0 kmh 29.59 in1002.0 mb 0.01 in0.3 mm 0.00 in0.0 mm 0.01 in0.3 mm
12:50 AM 36.8°F2.7°C 35.5°F1.9°C 95% 3.0 mph SE4.8 kmh SE 5.0 mph8.0 kmh 29.59 in1002.0 mb 0.01 in0.3 mm 0.00 in0.0 mm 0.01 in0.3 mm
12:55 AM 36.8°F2.7°C 35.5°F1.9°C 95% 4.0 mph SE6.4 kmh SE 7.0 mph11.3 kmh 29.59 in1002.0 mb 0.01 in0.3 mm 0.00 in0.0 mm 0.01 in0.3 mm
01:00 AM 36.8°F2.7°C 35.5°F1.9°C 95% 3.0 mph SE4.8 kmh SE 7.0 mph11.3 kmh 29.58 in1001.7 mb 0.01 in0.3 mm 0.00 in0.0 mm 0.01 in0.3 mm
01:05 AM 36.8°F2.7°C 35.5°F1.9°C 95% 4.0 mph SSE6.4 kmh SSE 5.0 mph8.0 kmh 29.58 in1001.7 mb 0.00 in0.0 mm 0.00 in0.0 mm 0.01 in0.3 mm
01:10 AM 36.7°F2.6°C 35.4°F1.9°C 95% 3.0 mph SSE4.8 kmh SSE 6.0 mph9.7 kmh 29.59 in1002.0 mb 0.00 in0.0 mm 0.00 in0.0 mm 0.01 in0.3 mm
01:15 AM 36.7°F2.6°C 35.4°F1.9°C 95% 3.0 mph SSE4.8 kmh SSE 6.0 mph9.7 kmh 29.59 in1002.0 mb 0.00 in0.0 mm 0.00 in0.0 mm 0.01 in0.3 mm
01:20 AM 36.6°F2.6°C 35.3°F1.8°C 95% 1.0 mph SE1.6 kmh SE 4.0 mph6.4 kmh 29.59 in1002.0 mb 0.00 in0.0 mm 0.00 in0.0 mm 0.01 in0.3 mm
01:25 AM 36.5°F2.5°C 35.2°F1.8°C 95% 4.0 mph SE6.4 kmh SE 4.0 mph6.4 kmh 29.58 in1001.7 mb 0.00 in0.0 mm 0.00 in0.0 mm 0.01 in0.3 mm
01:30 AM 36.5°F2.5°C 35.2°F1.8°C 95% Calm Calm 4.0 mph6.4 kmh 29.58 in1001.7 mb 0.00 in0.0 mm 0.00 in0.0 mm 0.01 in0.3 mm
01:35 AM 36.5°F2.5°C 35.2°F1.8°C 95% 2.0 mph SE3.2 kmh SE 3.0 mph4.8 kmh 29.58 in1001.7 mb 0.00 in0.0 mm 0.00 in0.0 mm 0.01 in0.3 mm
01:40 AM 36.5°F2.5°C 35.2°F1.8°C 95% 4.0 mph SE6.4 kmh SE 5.0 mph8.0 kmh 29.58 in1001.7 mb 0.00 in0.0 mm 0.00 in0.0 mm 0.01 in0.3 mm
01:45 AM 36.5°F2.5°C 35.2°F1.8°C 95% 4.0 mph SE6.4 kmh SE 6.0 mph9.7 kmh 29.58 in1001.7 mb 0.00 in0.0 mm 0.00 in0.0 mm 0.01 in0.3 mm
01:50 AM 36.6°F2.6°C 35.3°F1.8°C 95% 2.0 mph SE3.2 kmh SE 6.0 mph9.7 kmh 29.58 in1001.7 mb 0.00 in0.0 mm 0.00 in0.0 mm 0.01 in0.3 mm
01:55 AM 36.6°F2.6°C 35.3°F1.8°C 95% 4.0 mph SE6.4 kmh SE 6.0 mph9.7 kmh 29.58 in1001.7 mb 0.00 in0.0 mm 0.00 in0.0 mm 0.01 in0.3 mm
02:00 AM 36.7°F2.6°C 35.4°F1.9°C 95% 5.0 mph SE8.0 kmh SE 6.0 mph9.7 kmh 29.58 in1001.7 mb 0.00 in0.0 mm 0.00 in0.0 mm 0.01 in0.3 mm
02:05 AM 36.7°F2.6°C 35.4°F1.9°C 95% 4.0 mph SE6.4 kmh SE 5.0 mph8.0 kmh 29.58 in1001.7 mb 0.00 in0.0 mm 0.00 in0.0 mm 0.01 in0.3 mm
02:10 AM 36.7°F2.6°C 35.4°F1.9°C 95% 3.0 mph SE4.8 kmh SE 5.0 mph8.0 kmh 29.57 in1001.4 mb 0.00 in0.0 mm 0.00 in0.0 mm 0.01 in0.3 mm
02:15 AM 36.7°F2.6°C 35.4°F1.9°C 95% 3.0 mph SE4.8 kmh SE 5.0 mph8.0 kmh 29.57 in1001.4 mb 0.00 in0.0 mm 0.00 in0.0 mm 0.01 in0.3 mm
02:20 AM 36.7°F2.6°C 35.4°F1.9°C 95% 3.0 mph SE4.8 kmh SE 5.0 mph8.0 kmh 29.57 in1001.4 mb 0.00 in0.0 mm 0.00 in0.0 mm 0.01 in0.3 mm
02:25 AM 36.7°F2.6°C 35.4°F1.9°C 95% 2.0 mph SE3.2 kmh SE 5.0 mph8.0 kmh 29.57 in1001.4 mb 0.00 in0.0 mm 0.00 in0.0 mm 0.01 in0.3 mm
02:30 AM 36.7°F2.6°C 35.4°F1.9°C 95% 1.0 mph SE1.6 kmh SE 6.0 mph9.7 kmh 29.57 in1001.4 mb 0.00 in0.0 mm 0.00 in0.0 mm 0.01 in0.3 mm
02:35 AM 36.7°F2.6°C 35.4°F1.9°C 95% 3.0 mph SSE4.8 kmh SSE 7.0 mph11.3 kmh 29.57 in1001.4 mb 0.00 in0.0 mm 0.00 in0.0 mm 0.01 in0.3 mm
02:40 AM 36.6°F2.6°C 35.3°F1.8°C 95% 2.0 mph SSE3.2 kmh SSE 7.0 mph11.3 kmh 29.58 in1001.7 mb 0.00 in0.0 mm 0.00 in0.0 mm 0.01 in0.3 mm
02:45 AM 36.6°F2.6°C 35.3°F1.8°C 95% 6.0 mph S9.7 kmh S 7.0 mph11.3 kmh 29.58 in1001.7 mb 0.00 in0.0 mm 0.00 in0.0 mm 0.01 in0.3 mm
02:50 AM 36.6°F2.6°C 35.3°F1.8°C 95% 5.0 mph S8.0 kmh S 6.0 mph9.7 kmh 29.58 in1001.7 mb 0.00 in0.0 mm 0.00 in0.0 mm 0.01 in0.3 mm
02:55 AM 36.6°F2.6°C 35.3°F1.8°C 95% 3.0 mph S4.8 kmh S 7.0 mph11.3 kmh 29.58 in1001.7 mb 0.00 in0.0 mm 0.00 in0.0 mm 0.01 in0.3 mm
03:00 AM 36.7°F2.6°C 35.4°F1.9°C 95% 3.0 mph SE4.8 kmh SE 7.0 mph11.3 kmh 29.57 in1001.4 mb 0.00 in0.0 mm 0.00 in0.0 mm 0.01 in0.3 mm
03:05 AM 36.7°F2.6°C 35.4°F1.9°C 95% 2.0 mph S3.2 kmh S 6.0 mph9.7 kmh 29.57 in1001.4 mb 0.00 in0.0 mm 0.00 in0.0 mm 0.01 in0.3 mm
03:10 AM 36.7°F2.6°C 35.4°F1.9°C 95% 3.0 mph SE4.8 kmh SE 6.0 mph9.7 kmh 29.57 in1001.4 mb 0.00 in0.0 mm 0.00 in0.0 mm 0.01 in0.3 mm
03:15 AM 36.8°F2.7°C 35.5°F1.9°C 95% 2.0 mph SSE3.2 kmh SSE 7.0 mph11.3 kmh 29.57 in1001.4 mb 0.00 in0.0 mm 0.00 in0.0 mm 0.01 in0.3 mm
03:20 AM 36.8°F2.7°C 35.5°F1.9°C 95% 4.0 mph SE6.4 kmh SE 6.0 mph9.7 kmh 29.57 in1001.4 mb 0.00 in0.0 mm 0.00 in0.0 mm 0.01 in0.3 mm
03:25 AM 36.9°F2.7°C 35.6°F2.0°C 95% 1.0 mph SSE1.6 kmh SSE 7.0 mph11.3 kmh 29.56 in1001.0 mb 0.00 in0.0 mm 0.00 in0.0 mm 0.01 in0.3 mm
03:30 AM 37.0°F2.8°C 35.7°F2.1°C 95% 5.0 mph SE8.0 kmh SE 7.0 mph11.3 kmh 29.57 in1001.4 mb 0.00 in0.0 mm 0.00 in0.0 mm 0.01 in0.3 mm
03:35 AM 37.0°F2.8°C 35.7°F2.1°C 95% 3.0 mph SSE4.8 kmh SSE 7.0 mph11.3 kmh 29.56 in1001.0 mb 0.00 in0.0 mm 0.00 in0.0 mm 0.01 in0.3 mm
03:40 AM 37.0°F2.8°C 35.7°F2.1°C 95% 4.0 mph S6.4 kmh S 7.0 mph11.3 kmh 29.56 in1001.0 mb 0.00 in0.0 mm 0.00 in0.0 mm 0.01 in0.3 mm
03:45 AM 37.1°F2.8°C 35.8°F2.1°C 95% 6.0 mph S9.7 kmh S 7.0 mph11.3 kmh 29.56 in1001.0 mb 0.00 in0.0 mm 0.00 in0.0 mm 0.01 in0.3 mm
03:50 AM 37.1°F2.8°C 35.8°F2.1°C 95% 3.0 mph S4.8 kmh S 7.0 mph11.3 kmh 29.57 in1001.4 mb 0.01 in0.3 mm 0.12 in3.0 mm 0.02 in0.5 mm
03:55 AM 37.1°F2.8°C 35.8°F2.1°C 95% 5.0 mph SSE8.0 kmh SSE 7.0 mph11.3 kmh 29.56 in1001.0 mb 0.01 in0.3 mm 0.00 in0.0 mm 0.02 in0.5 mm
04:00 AM 37.1°F2.8°C 35.8°F2.1°C 95% 5.0 mph S8.0 kmh S 7.0 mph11.3 kmh 29.56 in1001.0 mb 0.01 in0.3 mm 0.00 in0.0 mm 0.02 in0.5 mm
04:05 AM 37.1°F2.8°C 35.8°F2.1°C 95% 3.0 mph S4.8 kmh S 7.0 mph11.3 kmh 29.56 in1001.0 mb 0.01 in0.3 mm 0.00 in0.0 mm 0.02 in0.5 mm
04:10 AM 37.1°F2.8°C 35.8°F2.1°C 95% 3.0 mph SE4.8 kmh SE 7.0 mph11.3 kmh 29.56 in1001.0 mb 0.01 in0.3 mm 0.00 in0.0 mm 0.02 in0.5 mm
04:15 AM 37.1°F2.8°C 35.8°F2.1°C 95% 2.0 mph S3.2 kmh S 7.0 mph11.3 kmh 29.55 in1000.7 mb 0.01 in0.3 mm 0.00 in0.0 mm 0.02 in0.5 mm
04:20 AM 37.1°F2.8°C 35.8°F2.1°C 95% 2.0 mph SSE3.2 kmh SSE 4.0 mph6.4 kmh 29.55 in1000.7 mb 0.02 in0.5 mm 0.12 in3.0 mm 0.03 in0.8 mm
04:25 AM 37.1°F2.8°C 35.8°F2.1°C 95% 1.0 mph SSE1.6 kmh SSE 4.0 mph6.4 kmh 29.55 in1000.7 mb 0.02 in0.5 mm 0.00 in0.0 mm 0.03 in0.8 mm
04:30 AM 37.1°F2.8°C 35.8°F2.1°C 95% 3.0 mph SSE4.8 kmh SSE 4.0 mph6.4 kmh 29.55 in1000.7 mb 0.02 in0.5 mm 0.00 in0.0 mm 0.03 in0.8 mm
04:35 AM 37.1°F2.8°C 35.8°F2.1°C 95% 2.0 mph SE3.2 kmh SE 4.0 mph6.4 kmh 29.54 in1000.3 mb 0.02 in0.5 mm 0.00 in0.0 mm 0.03 in0.8 mm
04:40 AM 37.1°F2.8°C 35.8°F2.1°C 95% 6.0 mph SSE9.7 kmh SSE 6.0 mph9.7 kmh 29.54 in1000.3 mb 0.02 in0.5 mm 0.00 in0.0 mm 0.03 in0.8 mm
04:45 AM 37.2°F2.9°C 35.9°F2.2°C 95% 3.0 mph S4.8 kmh S 6.0 mph9.7 kmh 29.54 in1000.3 mb 0.02 in0.5 mm 0.00 in0.0 mm 0.03 in0.8 mm
04:50 AM 37.2°F2.9°C 35.9°F2.2°C 95% 2.0 mph S3.2 kmh S 3.0 mph4.8 kmh 29.54 in1000.3 mb 0.02 in0.5 mm 0.00 in0.0 mm 0.03 in0.8 mm
04:55 AM 37.2°F2.9°C 35.9°F2.2°C 95% 1.0 mph SSE1.6 kmh SSE 4.0 mph6.4 kmh 29.53 in1000.0 mb 0.02 in0.5 mm 0.00 in0.0 mm 0.03 in0.8 mm
05:00 AM 37.1°F2.8°C 35.8°F2.1°C 95% 3.0 mph S4.8 kmh S 4.0 mph6.4 kmh 29.53 in1000.0 mb 0.02 in0.5 mm 0.00 in0.0 mm 0.03 in0.8 mm
05:05 AM 37.1°F2.8°C 35.8°F2.1°C 95% 2.0 mph S3.2 kmh S 4.0 mph6.4 kmh 29.53 in1000.0 mb 0.02 in0.5 mm 0.00 in0.0 mm 0.03 in0.8 mm
05:10 AM 37.0°F2.8°C 35.7°F2.1°C 95% 3.0 mph S4.8 kmh S 5.0 mph8.0 kmh 29.53 in1000.0 mb 0.03 in0.8 mm 0.12 in3.0 mm 0.04 in1.0 mm
05:15 AM 37.1°F2.8°C 35.8°F2.1°C 95% 4.0 mph S6.4 kmh S 7.0 mph11.3 kmh 29.53 in1000.0 mb 0.03 in0.8 mm 0.00 in0.0 mm 0.04 in1.0 mm
05:20 AM 37.1°F2.8°C 35.8°F2.1°C 95% 2.0 mph SSE3.2 kmh SSE 6.0 mph9.7 kmh 29.53 in1000.0 mb 0.02 in0.5 mm 0.00 in0.0 mm 0.04 in1.0 mm
05:25 AM 37.1°F2.8°C 35.8°F2.1°C 95% 2.0 mph S3.2 kmh S 6.0 mph9.7 kmh 29.52 in999.7 mb 0.02 in0.5 mm 0.00 in0.0 mm 0.04 in1.0 mm
05:30 AM 37.1°F2.8°C 35.8°F2.1°C 95% 1.0 mph S1.6 kmh S 6.0 mph9.7 kmh 29.52 in999.7 mb 0.02 in0.5 mm 0.00 in0.0 mm 0.04 in1.0 mm
05:35 AM 37.1°F2.8°C 35.8°F2.1°C 95% 2.0 mph S3.2 kmh S 4.0 mph6.4 kmh 29.52 in999.7 mb 0.02 in0.5 mm 0.00 in0.0 mm 0.04 in1.0 mm
05:40 AM 37.2°F2.9°C 35.9°F2.2°C 95% 6.0 mph S9.7 kmh S 6.0 mph9.7 kmh 29.52 in999.7 mb 0.02 in0.5 mm 0.00 in0.0 mm 0.04 in1.0 mm
05:45 AM 37.2°F2.9°C 35.9°F2.2°C 95% 4.0 mph S6.4 kmh S 6.0 mph9.7 kmh 29.52 in999.7 mb 0.03 in0.8 mm 0.12 in3.0 mm 0.05 in1.3 mm
05:50 AM 37.2°F2.9°C 35.9°F2.2°C 95% 3.0 mph SE4.8 kmh SE 6.0 mph9.7 kmh 29.52 in999.7 mb 0.03 in0.8 mm 0.00 in0.0 mm 0.05 in1.3 mm
05:55 AM 37.2°F2.9°C 35.9°F2.2°C 95% 3.0 mph SSE4.8 kmh SSE 6.0 mph9.7 kmh 29.51 in999.3 mb 0.04 in1.0 mm 0.12 in3.0 mm 0.06 in1.5 mm
06:00 AM 37.2°F2.9°C 35.9°F2.2°C 95% 4.0 mph S6.4 kmh S 6.0 mph9.7 kmh 29.51 in999.3 mb 0.04 in1.0 mm 0.00 in0.0 mm 0.06 in1.5 mm
06:05 AM 37.2°F2.9°C 35.9°F2.2°C 95% 4.0 mph S6.4 kmh S 6.0 mph9.7 kmh 29.51 in999.3 mb 0.03 in0.8 mm 0.00 in0.0 mm 0.06 in1.5 mm
06:10 AM 37.2°F2.9°C 35.9°F2.2°C 95% 4.0 mph S6.4 kmh S 6.0 mph9.7 kmh 29.51 in999.3 mb 0.04 in1.0 mm 0.12 in3.0 mm 0.07 in1.8 mm
06:15 AM 37.3°F2.9°C 36.3°F2.4°C 96% 3.0 mph S4.8 kmh S 6.0 mph9.7 kmh 29.51 in999.3 mb 0.04 in1.0 mm 0.00 in0.0 mm 0.07 in1.8 mm
06:20 AM 37.4°F3.0°C 36.1°F2.3°C 95% 3.0 mph SSE4.8 kmh SSE 6.0 mph9.7 kmh 29.51 in999.3 mb 0.03 in0.8 mm 0.00 in0.0 mm 0.07 in1.8 mm
06:25 AM 37.4°F3.0°C 36.1°F2.3°C 95% 3.0 mph SE4.8 kmh SE 6.0 mph9.7 kmh 29.51 in999.3 mb 0.04 in1.0 mm 0.12 in3.0 mm 0.08 in2.0 mm
06:30 AM 37.6°F3.1°C 36.3°F2.4°C 95% 4.0 mph SSE6.4 kmh SSE 6.0 mph9.7 kmh 29.50 in999.0 mb 0.04 in1.0 mm 0.00 in0.0 mm 0.08 in2.0 mm
06:35 AM 37.7°F3.2°C 36.7°F2.6°C 96% 4.0 mph SE6.4 kmh SE 6.0 mph9.7 kmh 29.50 in999.0 mb 0.04 in1.0 mm 0.00 in0.0 mm 0.08 in2.0 mm
06:40 AM 37.9°F3.3°C 36.9°F2.7°C 96% 4.0 mph SE6.4 kmh SE 8.0 mph12.9 kmh 29.50 in999.0 mb 0.04 in1.0 mm 0.00 in0.0 mm 0.08 in2.0 mm
06:45 AM 38.1°F3.4°C 37.1°F2.8°C 96% 5.0 mph SE8.0 kmh SE 8.0 mph12.9 kmh 29.50 in999.0 mb 0.04 in1.0 mm 0.00 in0.0 mm 0.08 in2.0 mm
06:50 AM 38.3°F3.5°C 37.3°F2.9°C 96% 4.0 mph SSE6.4 kmh SSE 8.0 mph12.9 kmh 29.50 in999.0 mb 0.03 in0.8 mm 0.00 in0.0 mm 0.08 in2.0 mm
06:55 AM 38.5°F3.6°C 37.5°F3.1°C 96% 3.0 mph SE4.8 kmh SE 8.0 mph12.9 kmh 29.49 in998.6 mb 0.03 in0.8 mm 0.00 in0.0 mm 0.08 in2.0 mm
07:00 AM 38.6°F3.7°C 37.6°F3.1°C 96% 4.0 mph SE6.4 kmh SE 8.0 mph12.9 kmh 29.49 in998.6 mb 0.03 in0.8 mm 0.00 in0.0 mm 0.08 in2.0 mm
07:05 AM 38.5°F3.6°C 37.5°F3.1°C 96% 2.0 mph SE3.2 kmh SE 5.0 mph8.0 kmh 29.48 in998.3 mb 0.02 in0.5 mm 0.00 in0.0 mm 0.08 in2.0 mm
07:10 AM 38.5°F3.6°C 37.5°F3.1°C 96% 2.0 mph SE3.2 kmh SE 5.0 mph8.0 kmh 29.48 in998.3 mb 0.02 in0.5 mm 0.00 in0.0 mm 0.08 in2.0 mm
07:15 AM 38.5°F3.6°C 37.5°F3.1°C 96% 4.0 mph S6.4 kmh S 5.0 mph8.0 kmh 29.48 in998.3 mb 0.02 in0.5 mm 0.00 in0.0 mm 0.08 in2.0 mm
07:20 AM 38.5°F3.6°C 37.5°F3.1°C 96% 2.0 mph S3.2 kmh S 6.0 mph9.7 kmh 29.48 in998.3 mb 0.01 in0.3 mm 0.00 in0.0 mm 0.08 in2.0 mm
07:25 AM 38.5°F3.6°C 37.5°F3.1°C 96% 2.0 mph SSE3.2 kmh SSE 6.0 mph9.7 kmh 29.48 in998.3 mb 0.01 in0.3 mm 0.00 in0.0 mm 0.08 in2.0 mm
07:30 AM 38.5°F3.6°C 37.5°F3.1°C 96% 5.0 mph SSE8.0 kmh SSE 7.0 mph11.3 kmh 29.48 in998.3 mb 0.01 in0.3 mm 0.00 in0.0 mm 0.08 in2.0 mm
07:35 AM 38.5°F3.6°C 37.5°F3.1°C 96% 6.0 mph S9.7 kmh S 6.0 mph9.7 kmh 29.47 in998.0 mb 0.00 in0.0 mm 0.00 in0.0 mm 0.08 in2.0 mm
07:40 AM 38.4°F3.6°C 37.4°F3.0°C 96% 5.0 mph SSE8.0 kmh SSE 8.0 mph12.9 kmh 29.47 in998.0 mb 0.00 in0.0 mm 0.00 in0.0 mm 0.08 in2.0 mm
07:45 AM 38.3°F3.5°C 37.3°F2.9°C 96% 4.0 mph S6.4 kmh S 10.0 mph16.1 kmh 29.47 in998.0 mb 0.00 in0.0 mm 0.00 in0.0 mm 0.08 in2.0 mm
07:50 AM 38.4°F3.6°C 37.4°F3.0°C 96% 3.0 mph S4.8 kmh S 8.0 mph12.9 kmh 29.47 in998.0 mb 0.00 in0.0 mm 0.00 in0.0 mm 0.08 in2.0 mm
07:55 AM 38.3°F3.5°C 37.3°F2.9°C 96% 2.0 mph S3.2 kmh S 8.0 mph12.9 kmh 29.46 in997.6 mb 0.01 in0.3 mm 0.12 in3.0 mm 0.09 in2.3 mm
08:00 AM 38.2°F3.4°C 36.9°F2.7°C 95% 3.0 mph SSW4.8 kmh SSW 8.0 mph12.9 kmh 29.46 in997.6 mb 0.01 in0.3 mm 0.00 in0.0 mm 0.09 in2.3 mm
08:05 AM 38.0°F3.3°C 36.7°F2.6°C 95% 5.0 mph SE8.0 kmh SE 8.0 mph12.9 kmh 29.46 in997.6 mb 0.01 in0.3 mm 0.00 in0.0 mm 0.09 in2.3 mm
08:10 AM 37.8°F3.2°C 36.8°F2.7°C 96% 5.0 mph S8.0 kmh S 10.0 mph16.1 kmh 29.46 in997.6 mb 0.01 in0.3 mm 0.00 in0.0 mm 0.09 in2.3 mm
08:15 AM 37.7°F3.2°C 36.7°F2.6°C 96% 4.0 mph S6.4 kmh S 10.0 mph16.1 kmh 29.46 in997.6 mb 0.01 in0.3 mm 0.00 in0.0 mm 0.09 in2.3 mm
08:20 AM 37.7°F3.2°C 36.7°F2.6°C 96% 6.0 mph S9.7 kmh S 10.0 mph16.1 kmh 29.45 in997.3 mb 0.01 in0.3 mm 0.00 in0.0 mm 0.09 in2.3 mm
08:25 AM 37.7°F3.2°C 36.7°F2.6°C 96% 5.0 mph S8.0 kmh S 10.0 mph16.1 kmh 29.46 in997.6 mb 0.02 in0.5 mm 0.12 in3.0 mm 0.10 in2.5 mm
08:30 AM 37.8°F3.2°C 36.8°F2.7°C 96% 5.0 mph S8.0 kmh S 10.0 mph16.1 kmh 29.46 in997.6 mb 0.02 in0.5 mm 0.00 in0.0 mm 0.10 in2.5 mm
08:35 AM 37.8°F3.2°C 36.8°F2.7°C 96% 6.0 mph S9.7 kmh S 11.0 mph17.7 kmh 29.46 in997.6 mb 0.02 in0.5 mm 0.00 in0.0 mm 0.10 in2.5 mm
08:40 AM 37.7°F3.2°C 36.7°F2.6°C 96% 7.0 mph SSE11.3 kmh SSE 13.0 mph20.9 kmh 29.45 in997.3 mb 0.02 in0.5 mm 0.00 in0.0 mm 0.10 in2.5 mm
08:45 AM 37.7°F3.2°C 36.7°F2.6°C 96% 7.0 mph S11.3 kmh S 13.0 mph20.9 kmh 29.45 in997.3 mb 0.02 in0.5 mm 0.00 in0.0 mm 0.10 in2.5 mm
08:50 AM 37.7°F3.2°C 36.7°F2.6°C 96% 7.0 mph S11.3 kmh S 12.0 mph19.3 kmh 29.45 in997.3 mb 0.02 in0.5 mm 0.00 in0.0 mm 0.10 in2.5 mm
08:55 AM 37.7°F3.2°C 36.7°F2.6°C 96% 7.0 mph S11.3 kmh S 13.0 mph20.9 kmh 29.45 in997.3 mb 0.02 in0.5 mm 0.00 in0.0 mm 0.10 in2.5 mm
09:00 AM 37.8°F3.2°C 36.8°F2.7°C 96% 9.0 mph SSE14.5 kmh SSE 13.0 mph20.9 kmh 29.45 in997.3 mb 0.02 in0.5 mm 0.00 in0.0 mm 0.10 in2.5 mm
09:05 AM 37.8°F3.2°C 36.8°F2.7°C 96% 10.0 mph S16.1 kmh S 13.0 mph20.9 kmh 29.45 in997.3 mb 0.01 in0.3 mm 0.00 in0.0 mm 0.10 in2.5 mm
09:10 AM 37.9°F3.3°C 36.9°F2.7°C 96% 5.0 mph S8.0 kmh S 13.0 mph20.9 kmh 29.44 in997.0 mb 0.01 in0.3 mm 0.00 in0.0 mm 0.10 in2.5 mm
09:15 AM 37.9°F3.3°C 36.9°F2.7°C 96% 4.0 mph S6.4 kmh S 13.0 mph20.9 kmh 29.44 in997.0 mb 0.01 in0.3 mm 0.00 in0.0 mm 0.10 in2.5 mm
09:20 AM 37.9°F3.3°C 36.9°F2.7°C 96% 5.0 mph S8.0 kmh S 9.0 mph14.5 kmh 29.44 in997.0 mb 0.01 in0.3 mm 0.00 in0.0 mm 0.10 in2.5 mm
09:25 AM 37.9°F3.3°C 36.9°F2.7°C 96% 4.0 mph S6.4 kmh S 9.0 mph14.5 kmh 29.44 in997.0 mb 0.02 in0.5 mm 0.12 in3.0 mm 0.11 in2.8 mm
09:30 AM 37.9°F3.3°C 36.9°F2.7°C 96% 7.0 mph SSE11.3 kmh SSE 13.0 mph20.9 kmh 29.43 in996.6 mb 0.02 in0.5 mm 0.00 in0.0 mm 0.11 in2.8 mm
09:35 AM 38.0°F3.3°C 37.0°F2.8°C 96% 5.0 mph SSE8.0 kmh SSE 8.0 mph12.9 kmh 29.43 in996.6 mb 0.01 in0.3 mm 0.00 in0.0 mm 0.11 in2.8 mm
09:40 AM 38.1°F3.4°C 37.1°F2.8°C 96% 5.0 mph SSE8.0 kmh SSE 9.0 mph14.5 kmh 29.43 in996.6 mb 0.02 in0.5 mm 0.12 in3.0 mm 0.12 in3.0 mm
09:45 AM 38.2°F3.4°C 37.2°F2.9°C 96% 4.0 mph SSE6.4 kmh SSE 9.0 mph14.5 kmh 29.43 in996.6 mb 0.03 in0.8 mm 0.12 in3.0 mm 0.13 in3.3 mm
09:50 AM 38.2°F3.4°C 37.2°F2.9°C 96% 3.0 mph S4.8 kmh S 6.0 mph9.7 kmh 29.43 in996.6 mb 0.04 in1.0 mm 0.12 in3.0 mm 0.14 in3.6 mm
09:55 AM 38.3°F3.5°C 37.3°F2.9°C 96% 4.0 mph SSE6.4 kmh SSE 6.0 mph9.7 kmh 29.43 in996.6 mb 0.04 in1.0 mm 0.00 in0.0 mm 0.14 in3.6 mm
10:00 AM 38.3°F3.5°C 37.3°F2.9°C 96% 3.0 mph SSE4.8 kmh SSE 6.0 mph9.7 kmh 29.43 in996.6 mb 0.05 in1.3 mm 0.01 in0.3 mm 0.15 in3.8 mm
10:05 AM 38.5°F3.6°C 37.5°F3.1°C 96% 3.0 mph SE4.8 kmh SE 8.0 mph12.9 kmh 29.42 in996.3 mb 0.06 in1.5 mm 0.12 in3.0 mm 0.16 in4.1 mm
10:10 AM 38.8°F3.8°C 37.8°F3.2°C 96% 5.0 mph SE8.0 kmh SE 8.0 mph12.9 kmh 29.42 in996.3 mb 0.07 in1.8 mm 0.12 in3.0 mm 0.17 in4.3 mm
10:15 AM 39.2°F4.0°C 38.2°F3.4°C 96% 6.0 mph SE9.7 kmh SE 9.0 mph14.5 kmh 29.41 in995.9 mb 0.08 in2.0 mm 0.12 in3.0 mm 0.18 in4.6 mm
10:20 AM 39.5°F4.2°C 38.5°F3.6°C 96% 3.0 mph SE4.8 kmh SE 10.0 mph16.1 kmh 29.41 in995.9 mb 0.08 in2.0 mm 0.00 in0.0 mm 0.18 in4.6 mm
10:25 AM 39.7°F4.3°C 38.7°F3.7°C 96% 7.0 mph ESE11.3 kmh ESE 12.0 mph19.3 kmh 29.41 in995.9 mb 0.08 in2.0 mm 0.00 in0.0 mm 0.18 in4.6 mm
10:30 AM 39.9°F4.4°C 38.9°F3.8°C 96% 7.0 mph ESE11.3 kmh ESE 12.0 mph19.3 kmh 29.41 in995.9 mb 0.09 in2.3 mm 0.12 in3.0 mm 0.19 in4.8 mm
10:35 AM 40.1°F4.5°C 39.1°F3.9°C 96% 3.0 mph S4.8 kmh S 10.0 mph16.1 kmh 29.40 in995.6 mb 0.08 in2.0 mm 0.00 in0.0 mm 0.19 in4.8 mm
10:40 AM 40.2°F4.6°C 39.2°F4.0°C 96% 6.0 mph SE9.7 kmh SE 10.0 mph16.1 kmh 29.40 in995.6 mb 0.08 in2.0 mm 0.00 in0.0 mm 0.19 in4.8 mm
10:45 AM 40.3°F4.6°C 39.3°F4.1°C 96% 5.0 mph SE8.0 kmh SE 11.0 mph17.7 kmh 29.40 in995.6 mb 0.08 in2.0 mm 0.00 in0.0 mm 0.19 in4.8 mm
10:50 AM 40.4°F4.7°C 39.4°F4.1°C 96% 6.0 mph SE9.7 kmh SE 10.0 mph16.1 kmh 29.40 in995.6 mb 0.06 in1.5 mm 0.00 in0.0 mm 0.19 in4.8 mm
10:55 AM 40.5°F4.7°C 39.5°F4.2°C 96% 9.0 mph SE14.5 kmh SE 11.0 mph17.7 kmh 29.40 in995.6 mb 0.07 in1.8 mm 0.12 in3.0 mm 0.20 in5.1 mm
11:00 AM 40.6°F4.8°C 39.6°F4.2°C 96% 8.0 mph SE12.9 kmh SE 13.0 mph20.9 kmh 29.40 in995.6 mb 0.07 in1.8 mm 0.00 in0.0 mm 0.20 in5.1 mm
11:05 AM 40.7°F4.8°C 39.7°F4.3°C 96% 13.0 mph SSE20.9 kmh SSE 13.0 mph20.9 kmh 29.40 in995.6 mb 0.05 in1.3 mm 0.00 in0.0 mm 0.20 in5.1 mm
11:10 AM 40.9°F4.9°C 39.9°F4.4°C 96% 8.0 mph SE12.9 kmh SE 13.0 mph20.9 kmh 29.39 in995.3 mb 0.05 in1.3 mm 0.00 in0.0 mm 0.20 in5.1 mm
11:15 AM 41.1°F5.1°C 40.1°F4.5°C 96% 15.0 mph SE24.1 kmh SE 15.0 mph24.1 kmh 29.39 in995.3 mb 0.06 in1.5 mm 0.12 in3.0 mm 0.21 in5.3 mm
11:20 AM 41.3°F5.2°C 40.3°F4.6°C 96% 4.0 mph SE6.4 kmh SE 14.0 mph22.5 kmh 29.39 in995.3 mb 0.04 in1.0 mm 0.00 in0.0 mm 0.21 in5.3 mm
11:25 AM 41.5°F5.3°C 40.5°F4.7°C 96% 13.0 mph SE20.9 kmh SE 17.0 mph27.4 kmh 29.38 in994.9 mb 0.04 in1.0 mm 0.00 in0.0 mm 0.21 in5.3 mm
11:30 AM 41.6°F5.3°C 40.6°F4.8°C 96% 11.0 mph SE17.7 kmh SE 17.0 mph27.4 kmh 29.38 in994.9 mb 0.04 in1.0 mm 0.00 in0.0 mm 0.21 in5.3 mm
11:35 AM 41.9°F5.5°C 40.9°F4.9°C 96% 10.0 mph SSE16.1 kmh SSE 15.0 mph24.1 kmh 29.38 in994.9 mb 0.03 in0.8 mm 0.00 in0.0 mm 0.21 in5.3 mm
11:40 AM 42.1°F5.6°C 41.0°F5.0°C 96% 7.0 mph SE11.3 kmh SE 15.0 mph24.1 kmh 29.37 in994.6 mb 0.03 in0.8 mm 0.00 in0.0 mm 0.21 in5.3 mm
11:45 AM 42.4°F5.8°C 41.3°F5.2°C 96% 9.0 mph SE14.5 kmh SE 19.0 mph30.6 kmh 29.37 in994.6 mb 0.03 in0.8 mm 0.00 in0.0 mm 0.21 in5.3 mm
11:50 AM 42.6°F5.9°C 41.5°F5.3°C 96% 5.0 mph SE8.0 kmh SE 15.0 mph24.1 kmh 29.37 in994.6 mb 0.03 in0.8 mm 0.00 in0.0 mm 0.21 in5.3 mm
11:55 AM 42.7°F5.9°C 41.6°F5.3°C 96% 14.0 mph ESE22.5 kmh ESE 16.0 mph25.7 kmh 29.36 in994.2 mb 0.03 in0.8 mm 0.00 in0.0 mm 0.21 in5.3 mm
12:00 PM 42.9°F6.1°C 41.8°F5.4°C 96% 7.0 mph E11.3 kmh E 19.0 mph30.6 kmh 29.36 in994.2 mb 0.03 in0.8 mm 0.00 in0.0 mm 0.21 in5.3 mm
12:05 PM 43.0°F6.1°C 41.9°F5.5°C 96% 18.0 mph SE29.0 kmh SE 21.0 mph33.8 kmh 29.36 in994.2 mb 0.02 in0.5 mm 0.00 in0.0 mm 0.21 in5.3 mm
12:10 PM 43.2°F6.2°C 42.1°F5.6°C 96% 18.0 mph SE29.0 kmh SE 23.0 mph37.0 kmh 29.35 in993.9 mb 0.02 in0.5 mm 0.00 in0.0 mm 0.21 in5.3 mm
12:15 PM 43.3°F6.3°C 42.0°F5.6°C 95% 9.0 mph ESE14.5 kmh ESE 23.0 mph37.0 kmh 29.35 in993.9 mb 0.02 in0.5 mm 0.00 in0.0 mm 0.21 in5.3 mm
12:20 PM 43.4°F6.3°C 42.1°F5.6°C 95% 11.0 mph SE17.7 kmh SE 15.0 mph24.1 kmh 29.35 in993.9 mb 0.00 in0.0 mm 0.00 in0.0 mm 0.21 in5.3 mm
12:25 PM 43.5°F6.4°C 42.2°F5.7°C 95% 5.0 mph E8.0 kmh E 15.0 mph24.1 kmh 29.34 in993.6 mb 0.00 in0.0 mm 0.00 in0.0 mm 0.21 in5.3 mm
12:30 PM 43.7°F6.5°C 42.4°F5.8°C 95% 6.0 mph SE9.7 kmh SE 15.0 mph24.1 kmh 29.34 in993.6 mb 0.00 in0.0 mm 0.00 in0.0 mm 0.21 in5.3 mm
12:35 PM 44.0°F6.7°C 42.7°F5.9°C 95% 13.0 mph SE20.9 kmh SE 17.0 mph27.4 kmh 29.34 in993.6 mb 0.00 in0.0 mm 0.00 in0.0 mm 0.21 in5.3 mm
12:40 PM 44.5°F6.9°C 43.2°F6.2°C 95% 3.0 mph SE4.8 kmh SE 19.0 mph30.6 kmh 29.33 in993.2 mb 0.00 in0.0 mm 0.00 in0.0 mm 0.21 in5.3 mm
12:45 PM 45.6°F7.6°C 43.7°F6.5°C 93% 8.0 mph SSE12.9 kmh SSE 19.0 mph30.6 kmh 29.33 in993.2 mb 0.00 in0.0 mm 0.00 in0.0 mm 0.21 in5.3 mm
12:50 PM 46.6°F8.1°C 44.1°F6.7°C 91% 12.0 mph SE19.3 kmh SE 22.0 mph35.4 kmh 29.33 in993.2 mb 0.00 in0.0 mm 0.00 in0.0 mm 0.21 in5.3 mm
12:55 PM 47.4°F8.6°C 44.3°F6.8°C 89% 14.0 mph SE22.5 kmh SE 22.0 mph35.4 kmh 29.33 in993.2 mb 0.00 in0.0 mm 0.00 in0.0 mm 0.21 in5.3 mm
01:00 PM 47.9°F8.8°C 44.2°F6.8°C 87% 14.0 mph SSE22.5 kmh SSE 22.0 mph35.4 kmh 29.32 in992.9 mb 0.00 in0.0 mm 0.00 in0.0 mm 0.21 in5.3 mm
01:05 PM 48.3°F9.1°C 44.0°F6.7°C 85% 5.0 mph ESE8.0 kmh ESE 16.0 mph25.7 kmh 29.32 in992.9 mb 0.00 in0.0 mm 0.00 in0.0 mm 0.21 in5.3 mm
01:10 PM 48.6°F9.2°C 43.7°F6.5°C 83% 10.0 mph ESE16.1 kmh ESE 18.0 mph29.0 kmh 29.32 in992.9 mb 0.00 in0.0 mm 0.00 in0.0 mm 0.21 in5.3 mm
01:15 PM 48.8°F9.3°C 43.6°F6.4°C 82% 8.0 mph ESE12.9 kmh ESE 19.0 mph30.6 kmh 29.32 in992.9 mb 0.00 in0.0 mm 0.00 in0.0 mm 0.21 in5.3 mm
01:20 PM 48.9°F9.4°C 43.3°F6.3°C 81% 9.0 mph SSE14.5 kmh SSE 17.0 mph27.4 kmh 29.31 in992.6 mb 0.00 in0.0 mm 0.00 in0.0 mm 0.21 in5.3 mm
01:25 PM 49.1°F9.5°C 43.5°F6.4°C 81% 14.0 mph SE22.5 kmh SE 17.0 mph27.4 kmh 29.31 in992.6 mb 0.00 in0.0 mm 0.00 in0.0 mm 0.21 in5.3 mm
01:30 PM 49.3°F9.6°C 43.7°F6.5°C 81% 8.0 mph SE12.9 kmh SE 17.0 mph27.4 kmh 29.31 in992.6 mb 0.00 in0.0 mm 0.00 in0.0 mm 0.21 in5.3 mm
01:35 PM 49.8°F9.9°C 43.6°F6.4°C 79% 13.0 mph SE20.9 kmh SE 18.0 mph29.0 kmh 29.31 in992.6 mb 0.00 in0.0 mm 0.00 in0.0 mm 0.21 in5.3 mm
01:40 PM 50.1°F10.1°C 43.9°F6.6°C 79% 10.0 mph SSE16.1 kmh SSE 22.0 mph35.4 kmh 29.30 in992.2 mb 0.00 in0.0 mm 0.00 in0.0 mm 0.21 in5.3 mm
01:45 PM 50.2°F10.1°C 43.6°F6.4°C 78% 15.0 mph SSE24.1 kmh SSE 22.0 mph35.4 kmh 29.30 in992.2 mb 0.00 in0.0 mm 0.00 in0.0 mm 0.21 in5.3 mm
01:50 PM 50.3°F10.2°C 43.7°F6.5°C 78% 6.0 mph SE9.7 kmh SE 18.0 mph29.0 kmh 29.30 in992.2 mb 0.00 in0.0 mm 0.00 in0.0 mm 0.21 in5.3 mm
01:55 PM 50.6°F10.3°C 44.3°F6.8°C 79% 9.0 mph SE14.5 kmh SE 18.0 mph29.0 kmh 29.29 in991.9 mb 0.00 in0.0 mm 0.00 in0.0 mm 0.21 in5.3 mm
02:00 PM 51.5°F10.8°C 45.5°F7.5°C 80% 8.0 mph ESE12.9 kmh ESE 18.0 mph29.0 kmh 29.29 in991.9 mb 0.00 in0.0 mm 0.00 in0.0 mm 0.21 in5.3 mm
02:05 PM 52.6°F11.4°C 45.6°F7.6°C 77% 7.0 mph SE11.3 kmh SE 17.0 mph27.4 kmh 29.29 in991.9 mb 0.00 in0.0 mm 0.00 in0.0 mm 0.21 in5.3 mm
02:10 PM 53.6°F12.0°C 46.6°F8.1°C 77% 1.0 mph SE1.6 kmh SE 17.0 mph27.4 kmh 29.29 in991.9 mb 0.00 in0.0 mm 0.00 in0.0 mm 0.21 in5.3 mm
02:15 PM 54.7°F12.6°C 46.2°F7.9°C 73% 16.0 mph SE25.7 kmh SE 17.0 mph27.4 kmh 29.28 in991.5 mb 0.00 in0.0 mm 0.00 in0.0 mm 0.21 in5.3 mm
02:20 PM 54.5°F12.5°C 44.9°F7.2°C 70% 11.0 mph SSE17.7 kmh SSE 23.0 mph37.0 kmh 29.27 in991.2 mb 0.00 in0.0 mm 0.00 in0.0 mm 0.21 in5.3 mm
02:25 PM 53.8°F12.1°C 44.6°F7.0°C 71% 17.0 mph E27.4 kmh E 23.0 mph37.0 kmh 29.27 in991.2 mb 0.00 in0.0 mm 0.00 in0.0 mm 0.21 in5.3 mm
02:30 PM 53.3°F11.8°C 44.2°F6.8°C 71% 15.0 mph SE24.1 kmh SE 25.0 mph40.2 kmh 29.27 in991.2 mb 0.00 in0.0 mm 0.00 in0.0 mm 0.21 in5.3 mm
02:35 PM 52.8°F11.6°C 44.0°F6.7°C 72% 12.0 mph SE19.3 kmh SE 21.0 mph33.8 kmh 29.26 in990.9 mb 0.00 in0.0 mm 0.00 in0.0 mm 0.21 in5.3 mm
02:40 PM 52.7°F11.5°C 44.3°F6.8°C 73% 8.0 mph SE12.9 kmh SE 21.0 mph33.8 kmh 29.27 in991.2 mb 0.00 in0.0 mm 0.00 in0.0 mm 0.21 in5.3 mm
02:45 PM 53.0°F11.7°C 44.2°F6.8°C 72% 8.0 mph SE12.9 kmh SE 21.0 mph33.8 kmh 29.26 in990.9 mb 0.00 in0.0 mm 0.00 in0.0 mm 0.21 in5.3 mm
02:50 PM 53.2°F11.8°C 43.7°F6.5°C 70% 13.0 mph ESE20.9 kmh ESE 22.0 mph35.4 kmh 29.26 in990.9 mb 0.00 in0.0 mm 0.00 in0.0 mm 0.21 in5.3 mm
02:55 PM 53.1°F11.7°C 44.0°F6.7°C 71% 7.0 mph SE11.3 kmh SE 22.0 mph35.4 kmh 29.26 in990.9 mb 0.00 in0.0 mm 0.00 in0.0 mm 0.21 in5.3 mm
03:00 PM 53.2°F11.8°C 44.1°F6.7°C 71% 14.0 mph SE22.5 kmh SE 22.0 mph35.4 kmh 29.25 in990.5 mb 0.00 in0.0 mm 0.00 in0.0 mm 0.21 in5.3 mm
03:05 PM 53.3°F11.8°C 44.2°F6.8°C 71% 8.0 mph ESE12.9 kmh ESE 19.0 mph30.6 kmh 29.24 in990.2 mb 0.00 in0.0 mm 0.00 in0.0 mm 0.21 in5.3 mm
03:10 PM 53.0°F11.7°C 43.5°F6.4°C 70% 6.0 mph E9.7 kmh E 23.0 mph37.0 kmh 29.24 in990.2 mb 0.00 in0.0 mm 0.00 in0.0 mm 0.21 in5.3 mm
03:15 PM 52.8°F11.6°C 43.3°F6.3°C 70% 21.0 mph E33.8 kmh E 23.0 mph37.0 kmh 29.23 in989.8 mb 0.00 in0.0 mm 0.00 in0.0 mm 0.21 in5.3 mm
03:20 PM 52.8°F11.6°C 42.5°F5.8°C 68% 7.0 mph SSE11.3 kmh SSE 20.0 mph32.2 kmh 29.22 in989.5 mb 0.00 in0.0 mm 0.00 in0.0 mm 0.21 in5.3 mm
03:25 PM 52.8°F11.6°C 42.5°F5.8°C 68% 10.0 mph E16.1 kmh E 23.0 mph37.0 kmh 29.22 in989.5 mb 0.00 in0.0 mm 0.00 in0.0 mm 0.21 in5.3 mm
03:30 PM 52.9°F11.6°C 42.6°F5.9°C 68% 9.0 mph SE14.5 kmh SE 23.0 mph37.0 kmh 29.22 in989.5 mb 0.00 in0.0 mm 0.00 in0.0 mm 0.21 in5.3 mm
03:35 PM 52.8°F11.6°C 42.2°F5.7°C 67% 12.0 mph SE19.3 kmh SE 21.0 mph33.8 kmh 29.22 in989.5 mb 0.00 in0.0 mm 0.00 in0.0 mm 0.21 in5.3 mm
03:40 PM 52.6°F11.4°C 42.4°F5.8°C 68% 10.0 mph ESE16.1 kmh ESE 21.0 mph33.8 kmh 29.22 in989.5 mb 0.00 in0.0 mm 0.00 in0.0 mm 0.21 in5.3 mm
03:45 PM 52.2°F11.2°C 42.7°F5.9°C 70% 4.0 mph SE6.4 kmh SE 21.0 mph33.8 kmh 29.21 in989.2 mb 0.00 in0.0 mm 0.00 in0.0 mm 0.21 in5.3 mm
03:50 PM 51.8°F11.0°C 42.3°F5.7°C 70% 9.0 mph SE14.5 kmh SE 20.0 mph32.2 kmh 29.22 in989.5 mb 0.00 in0.0 mm 0.00 in0.0 mm 0.21 in5.3 mm
03:55 PM 51.7°F10.9°C 42.2°F5.7°C 70% 10.0 mph SE16.1 kmh SE 20.0 mph32.2 kmh 29.21 in989.2 mb 0.00 in0.0 mm 0.00 in0.0 mm 0.21 in5.3 mm
04:00 PM 51.5°F10.8°C 42.4°F5.8°C 71% 6.0 mph SE9.7 kmh SE 20.0 mph32.2 kmh 29.20 in988.8 mb 0.00 in0.0 mm 0.00 in0.0 mm 0.21 in5.3 mm
04:05 PM 51.5°F10.8°C 42.1°F5.6°C 70% 17.0 mph ESE27.4 kmh ESE 17.0 mph27.4 kmh 29.20 in988.8 mb 0.00 in0.0 mm 0.00 in0.0 mm 0.21 in5.3 mm
04:10 PM 51.5°F10.8°C 41.7°F5.4°C 69% 9.0 mph ESE14.5 kmh ESE 20.0 mph32.2 kmh 29.20 in988.8 mb 0.00 in0.0 mm 0.00 in0.0 mm 0.21 in5.3 mm
04:15 PM 51.5°F10.8°C 41.7°F5.4°C 69% 8.0 mph SE12.9 kmh SE 22.0 mph35.4 kmh 29.20 in988.8 mb 0.00 in0.0 mm 0.00 in0.0 mm 0.21 in5.3 mm
04:20 PM 51.5°F10.8°C 41.7°F5.4°C 69% 10.0 mph SE16.1 kmh SE 18.0 mph29.0 kmh 29.20 in988.8 mb 0.00 in0.0 mm 0.00 in0.0 mm 0.21 in5.3 mm
04:25 PM 51.4°F10.8°C 41.2°F5.1°C 68% 14.0 mph SE22.5 kmh SE 20.0 mph32.2 kmh 29.20 in988.8 mb 0.00 in0.0 mm 0.00 in0.0 mm 0.21 in5.3 mm
04:30 PM 51.3°F10.7°C 41.5°F5.3°C 69% 8.0 mph SE12.9 kmh SE 20.0 mph32.2 kmh 29.19 in988.5 mb 0.00 in0.0 mm 0.00 in0.0 mm 0.21 in5.3 mm
04:35 PM 51.3°F10.7°C 41.1°F5.1°C 68% 11.0 mph ESE17.7 kmh ESE 16.0 mph25.7 kmh 29.20 in988.8 mb 0.00 in0.0 mm 0.00 in0.0 mm 0.21 in5.3 mm
04:40 PM 51.3°F10.7°C 41.1°F5.1°C 68% 15.0 mph SE24.1 kmh SE 20.0 mph32.2 kmh 29.20 in988.8 mb 0.00 in0.0 mm 0.00 in0.0 mm 0.21 in5.3 mm
04:45 PM 51.3°F10.7°C 41.1°F5.1°C 68% 11.0 mph SE17.7 kmh SE 23.0 mph37.0 kmh 29.20 in988.8 mb 0.00 in0.0 mm 0.00 in0.0 mm 0.21 in5.3 mm
04:50 PM 51.1°F10.6°C 41.3°F5.2°C 69% 12.0 mph SE19.3 kmh SE 20.0 mph32.2 kmh 29.20 in988.8 mb 0.00 in0.0 mm 0.00 in0.0 mm 0.21 in5.3 mm
04:55 PM 51.0°F10.6°C 41.2°F5.1°C 69% 16.0 mph SE25.7 kmh SE 20.0 mph32.2 kmh 29.20 in988.8 mb 0.00 in0.0 mm 0.00 in0.0 mm 0.21 in5.3 mm
05:00 PM 50.9°F10.5°C 41.1°F5.1°C 69% 9.0 mph SE14.5 kmh SE 23.0 mph37.0 kmh 29.20 in988.8 mb 0.00 in0.0 mm 0.00 in0.0 mm 0.21 in5.3 mm
05:05 PM 50.8°F10.4°C 40.6°F4.8°C 68% 11.0 mph SE17.7 kmh SE 22.0 mph35.4 kmh 29.21 in989.2 mb 0.00 in0.0 mm 0.00 in0.0 mm 0.21 in5.3 mm
05:10 PM 50.6°F10.3°C 40.8°F4.9°C 69% 8.0 mph SSE12.9 kmh SSE 22.0 mph35.4 kmh 29.21 in989.2 mb 0.00 in0.0 mm 0.00 in0.0 mm 0.21 in5.3 mm
05:15 PM 50.2°F10.1°C 40.8°F4.9°C 70% 6.0 mph SSE9.7 kmh SSE 22.0 mph35.4 kmh 29.22 in989.5 mb 0.00 in0.0 mm 0.00 in0.0 mm 0.21 in5.3 mm
05:20 PM 49.6°F9.8°C 41.3°F5.2°C 73% 8.0 mph SE12.9 kmh SE 21.0 mph33.8 kmh 29.23 in989.8 mb 0.00 in0.0 mm 0.00 in0.0 mm 0.21 in5.3 mm
05:25 PM 49.0°F9.4°C 41.4°F5.2°C 75% 7.0 mph SSW11.3 kmh SSW 21.0 mph33.8 kmh 29.24 in990.2 mb 0.00 in0.0 mm 0.00 in0.0 mm 0.21 in5.3 mm
05:30 PM 48.3°F9.1°C 42.1°F5.6°C 79% 6.0 mph SW9.7 kmh SW 21.0 mph33.8 kmh 29.27 in991.2 mb 0.01 in0.3 mm 0.12 in3.0 mm 0.22 in5.6 mm
05:35 PM 47.8°F8.8°C 42.6°F5.9°C 82% 6.0 mph SW9.7 kmh SW 12.0 mph19.3 kmh 29.28 in991.5 mb 0.02 in0.5 mm 0.12 in3.0 mm 0.23 in5.8 mm
05:40 PM 47.5°F8.6°C 42.9°F6.1°C 84% 5.0 mph SW8.0 kmh SW 14.0 mph22.5 kmh 29.27 in991.2 mb 0.04 in1.0 mm 0.24 in6.1 mm 0.25 in6.4 mm
05:45 PM 47.0°F8.3°C 43.0°F6.1°C 86% 4.0 mph S6.4 kmh S 14.0 mph22.5 kmh 29.27 in991.2 mb 0.04 in1.0 mm 0.00 in0.0 mm 0.25 in6.4 mm
05:50 PM 47.0°F8.3°C 43.0°F6.1°C 86% 7.0 mph S11.3 kmh S 14.0 mph22.5 kmh 29.25 in990.5 mb 0.04 in1.0 mm 0.00 in0.0 mm 0.25 in6.4 mm
05:55 PM 47.0°F8.3°C 43.0°F6.1°C 86% 4.0 mph SSE6.4 kmh SSE 14.0 mph22.5 kmh 29.25 in990.5 mb 0.04 in1.0 mm 0.00 in0.0 mm 0.25 in6.4 mm
06:00 PM 47.1°F8.4°C 42.8°F6.0°C 85% 9.0 mph SSE14.5 kmh SSE 14.0 mph22.5 kmh 29.25 in990.5 mb 0.04 in1.0 mm 0.00 in0.0 mm 0.25 in6.4 mm
06:05 PM 47.2°F8.4°C 42.6°F5.9°C 84% 10.0 mph SE16.1 kmh SE 17.0 mph27.4 kmh 29.25 in990.5 mb 0.04 in1.0 mm 0.00 in0.0 mm 0.25 in6.4 mm
06:10 PM 47.4°F8.6°C 42.5°F5.8°C 83% 8.0 mph SE12.9 kmh SE 19.0 mph30.6 kmh 29.24 in990.2 mb 0.04 in1.0 mm 0.00 in0.0 mm 0.25 in6.4 mm
06:15 PM 47.5°F8.6°C 42.6°F5.9°C 83% 10.0 mph SSE16.1 kmh SSE 19.0 mph30.6 kmh 29.25 in990.5 mb 0.04 in1.0 mm 0.00 in0.0 mm 0.25 in6.4 mm
06:20 PM 47.5°F8.6°C 42.3°F5.7°C 82% 9.0 mph SE14.5 kmh SE 18.0 mph29.0 kmh 29.24 in990.2 mb 0.04 in1.0 mm 0.00 in0.0 mm 0.25 in6.4 mm
06:25 PM 47.5°F8.6°C 42.0°F5.6°C 81% 7.0 mph SE11.3 kmh SE 18.0 mph29.0 kmh 29.23 in989.8 mb 0.04 in1.0 mm 0.00 in0.0 mm 0.25 in6.4 mm
06:30 PM 47.5°F8.6°C 42.0°F5.6°C 81% 11.0 mph SE17.7 kmh SE 18.0 mph29.0 kmh 29.23 in989.8 mb 0.04 in1.0 mm 0.00 in0.0 mm 0.25 in6.4 mm
06:35 PM 47.6°F8.7°C 41.8°F5.4°C 80% 8.0 mph SE12.9 kmh SE 16.0 mph25.7 kmh 29.22 in989.5 mb 0.03 in0.8 mm 0.00 in0.0 mm 0.25 in6.4 mm
06:40 PM 47.7°F8.7°C 41.5°F5.3°C 79% 12.0 mph ESE19.3 kmh ESE 19.0 mph30.6 kmh 29.22 in989.5 mb 0.03 in0.8 mm 0.00 in0.0 mm 0.25 in6.4 mm
06:45 PM 47.7°F8.7°C 41.2°F5.1°C 78% 9.0 mph ESE14.5 kmh ESE 19.0 mph30.6 kmh 29.21 in989.2 mb 0.03 in0.8 mm 0.00 in0.0 mm 0.25 in6.4 mm
06:50 PM 47.6°F8.7°C 41.1°F5.1°C 78% 5.0 mph E8.0 kmh E 16.0 mph25.7 kmh 29.21 in989.2 mb 0.00 in0.0 mm 0.00 in0.0 mm 0.25 in6.4 mm
06:55 PM 47.5°F8.6°C 41.0°F5.0°C 78% 14.0 mph ESE22.5 kmh ESE 20.0 mph32.2 kmh 29.22 in989.5 mb 0.00 in0.0 mm 0.00 in0.0 mm 0.25 in6.4 mm
07:05 PM 47.7°F8.7°C 40.5°F4.7°C 76% 3.0 mph ESE4.8 kmh ESE 16.0 mph25.7 kmh 29.23 in989.8 mb 0.00 in0.0 mm 0.00 in0.0 mm 0.25 in6.4 mm
07:10 PM 47.7°F8.7°C 40.5°F4.7°C 76% 9.0 mph S14.5 kmh S 16.0 mph25.7 kmh 29.22 in989.5 mb 0.00 in0.0 mm 0.00 in0.0 mm 0.25 in6.4 mm
07:15 PM 47.7°F8.7°C 40.2°F4.6°C 75% 4.0 mph SE6.4 kmh SE 16.0 mph25.7 kmh 29.22 in989.5 mb 0.00 in0.0 mm 0.00 in0.0 mm 0.25 in6.4 mm
07:20 PM 47.7°F8.7°C 40.2°F4.6°C 75% 7.0 mph ESE11.3 kmh ESE 11.0 mph17.7 kmh 29.22 in989.5 mb 0.00 in0.0 mm 0.00 in0.0 mm 0.25 in6.4 mm
07:25 PM 47.6°F8.7°C 40.1°F4.5°C 75% 6.0 mph ESE9.7 kmh ESE 11.0 mph17.7 kmh 29.23 in989.8 mb 0.00 in0.0 mm 0.00 in0.0 mm 0.25 in6.4 mm
07:30 PM 47.6°F8.7°C 40.1°F4.5°C 75% 5.0 mph ESE8.0 kmh ESE 11.0 mph17.7 kmh 29.23 in989.8 mb 0.00 in0.0 mm 0.00 in0.0 mm 0.25 in6.4 mm
07:35 PM 47.5°F8.6°C 40.0°F4.4°C 75% 3.0 mph SE4.8 kmh SE 12.0 mph19.3 kmh 29.24 in990.2 mb 0.00 in0.0 mm 0.00 in0.0 mm 0.25 in6.4 mm
07:40 PM 47.4°F8.6°C 39.9°F4.4°C 75% 6.0 mph SE9.7 kmh SE 12.0 mph19.3 kmh 29.24 in990.2 mb 0.00 in0.0 mm 0.00 in0.0 mm 0.25 in6.4 mm
07:45 PM 47.4°F8.6°C 39.9°F4.4°C 75% 4.0 mph SE6.4 kmh SE 12.0 mph19.3 kmh 29.25 in990.5 mb 0.00 in0.0 mm 0.00 in0.0 mm 0.25 in6.4 mm
07:50 PM 47.4°F8.6°C 39.9°F4.4°C 75% 2.0 mph S3.2 kmh S 7.0 mph11.3 kmh 29.25 in990.5 mb 0.00 in0.0 mm 0.00 in0.0 mm 0.25 in6.4 mm
07:55 PM 47.4°F8.6°C 39.9°F4.4°C 75% 5.0 mph SE8.0 kmh SE 8.0 mph12.9 kmh 29.25 in990.5 mb 0.00 in0.0 mm 0.00 in0.0 mm 0.25 in6.4 mm
08:00 PM 47.4°F8.6°C 39.9°F4.4°C 75% 3.0 mph SE4.8 kmh SE 8.0 mph12.9 kmh 29.26 in990.9 mb 0.00 in0.0 mm 0.00 in0.0 mm 0.25 in6.4 mm
08:05 PM 47.4°F8.6°C 39.9°F4.4°C 75% 5.0 mph S8.0 kmh S 7.0 mph11.3 kmh 29.26 in990.9 mb 0.00 in0.0 mm 0.00 in0.0 mm 0.25 in6.4 mm
08:10 PM 46.7°F8.2°C 39.9°F4.4°C 77% 6.0 mph SSE9.7 kmh SSE 10.0 mph16.1 kmh 29.26 in990.9 mb 0.00 in0.0 mm 0.00 in0.0 mm 0.25 in6.4 mm
08:15 PM 46.5°F8.1°C 40.0°F4.4°C 78% 3.0 mph SSE4.8 kmh SSE 10.0 mph16.1 kmh 29.27 in991.2 mb 0.00 in0.0 mm 0.00 in0.0 mm 0.25 in6.4 mm
08:20 PM 46.4°F8.0°C 39.9°F4.4°C 78% 2.0 mph SSE3.2 kmh SSE 10.0 mph16.1 kmh 29.27 in991.2 mb 0.00 in0.0 mm 0.00 in0.0 mm 0.25 in6.4 mm
08:25 PM 46.1°F7.8°C 39.6°F4.2°C 78% 4.0 mph SSE6.4 kmh SSE 10.0 mph16.1 kmh 29.27 in991.2 mb 0.00 in0.0 mm 0.00 in0.0 mm 0.25 in6.4 mm
08:30 PM 46.0°F7.8°C 39.9°F4.4°C 79% 3.0 mph SSE4.8 kmh SSE 10.0 mph16.1 kmh 29.27 in991.2 mb 0.00 in0.0 mm 0.00 in0.0 mm 0.25 in6.4 mm
08:35 PM 45.8°F7.7°C 39.7°F4.3°C 79% 5.0 mph S8.0 kmh S 9.0 mph14.5 kmh 29.27 in991.2 mb 0.00 in0.0 mm 0.00 in0.0 mm 0.25 in6.4 mm
08:40 PM 45.7°F7.6°C 39.6°F4.2°C 79% 8.0 mph SE12.9 kmh SE 13.0 mph20.9 kmh 29.27 in991.2 mb 0.00 in0.0 mm 0.00 in0.0 mm 0.25 in6.4 mm
08:45 PM 45.6°F7.6°C 39.8°F4.3°C 80% 11.0 mph SE17.7 kmh SE 13.0 mph20.9 kmh 29.27 in991.2 mb 0.00 in0.0 mm 0.00 in0.0 mm 0.25 in6.4 mm
08:50 PM 45.5°F7.5°C 39.7°F4.3°C 80% 3.0 mph SSE4.8 kmh SSE 9.0 mph14.5 kmh 29.27 in991.2 mb 0.00 in0.0 mm 0.00 in0.0 mm 0.25 in6.4 mm
08:55 PM 45.3°F7.4°C 39.5°F4.2°C 80% 8.0 mph SSE12.9 kmh SSE 12.0 mph19.3 kmh 29.27 in991.2 mb 0.00 in0.0 mm 0.00 in0.0 mm 0.25 in6.4 mm
09:00 PM 45.2°F7.3°C 39.7°F4.3°C 81% 7.0 mph S11.3 kmh S 12.0 mph19.3 kmh 29.26 in990.9 mb 0.00 in0.0 mm 0.00 in0.0 mm 0.25 in6.4 mm
09:05 PM 45.0°F7.2°C 39.5°F4.2°C 81% 7.0 mph SE11.3 kmh SE 9.0 mph14.5 kmh 29.27 in991.2 mb 0.00 in0.0 mm 0.00 in0.0 mm 0.25 in6.4 mm
09:10 PM 44.8°F7.1°C 39.7°F4.3°C 82% 6.0 mph SE9.7 kmh SE 12.0 mph19.3 kmh 29.27 in991.2 mb 0.00 in0.0 mm 0.00 in0.0 mm 0.25 in6.4 mm
09:15 PM 44.7°F7.1°C 39.6°F4.2°C 82% 4.0 mph SE6.4 kmh SE 13.0 mph20.9 kmh 29.27 in991.2 mb 0.00 in0.0 mm 0.00 in0.0 mm 0.25 in6.4 mm
09:20 PM 44.5°F6.9°C 39.7°F4.3°C 83% 8.0 mph SE12.9 kmh SE 8.0 mph12.9 kmh 29.27 in991.2 mb 0.00 in0.0 mm 0.00 in0.0 mm 0.25 in6.4 mm
09:25 PM 44.3°F6.8°C 39.5°F4.2°C 83% 5.0 mph SE8.0 kmh SE 10.0 mph16.1 kmh 29.27 in991.2 mb 0.00 in0.0 mm 0.00 in0.0 mm 0.25 in6.4 mm
09:30 PM 44.2°F6.8°C 39.4°F4.1°C 83% 6.0 mph SE9.7 kmh SE 11.0 mph17.7 kmh 29.27 in991.2 mb 0.00 in0.0 mm 0.00 in0.0 mm 0.25 in6.4 mm
09:35 PM 44.1°F6.7°C 39.3°F4.1°C 83% 5.0 mph SSE8.0 kmh SSE 10.0 mph16.1 kmh 29.27 in991.2 mb 0.00 in0.0 mm 0.00 in0.0 mm 0.25 in6.4 mm
09:40 PM 44.0°F6.7°C 39.2°F4.0°C 83% 6.0 mph SSE9.7 kmh SSE 12.0 mph19.3 kmh 29.28 in991.5 mb 0.00 in0.0 mm 0.00 in0.0 mm 0.25 in6.4 mm
09:45 PM 43.9°F6.6°C 39.1°F3.9°C 83% 9.0 mph SE14.5 kmh SE 12.0 mph19.3 kmh 29.28 in991.5 mb 0.00 in0.0 mm 0.00 in0.0 mm 0.25 in6.4 mm
09:50 PM 43.9°F6.6°C 39.1°F3.9°C 83% 5.0 mph SE8.0 kmh SE 9.0 mph14.5 kmh 29.27 in991.2 mb 0.00 in0.0 mm 0.00 in0.0 mm 0.25 in6.4 mm
09:55 PM 43.7°F6.5°C 38.9°F3.8°C 83% 5.0 mph SE8.0 kmh SE 12.0 mph19.3 kmh 29.28 in991.5 mb 0.00 in0.0 mm 0.00 in0.0 mm 0.25 in6.4 mm
10:00 PM 43.6°F6.4°C 38.8°F3.8°C 83% 7.0 mph SE11.3 kmh SE 12.0 mph19.3 kmh 29.28 in991.5 mb 0.00 in0.0 mm 0.00 in0.0 mm 0.25 in6.4 mm
10:05 PM 43.4°F6.3°C 38.6°F3.7°C 83% 4.0 mph SE6.4 kmh SE 11.0 mph17.7 kmh 29.29 in991.9 mb 0.00 in0.0 mm 0.00 in0.0 mm 0.25 in6.4 mm
10:10 PM 43.3°F6.3°C 38.5°F3.6°C 83% 10.0 mph SE16.1 kmh SE 11.0 mph17.7 kmh 29.29 in991.9 mb 0.00 in0.0 mm 0.00 in0.0 mm 0.25 in6.4 mm
10:15 PM 43.2°F6.2°C 38.4°F3.6°C 83% 8.0 mph SE12.9 kmh SE 12.0 mph19.3 kmh 29.29 in991.9 mb 0.00 in0.0 mm 0.00 in0.0 mm 0.25 in6.4 mm
10:20 PM 43.0°F6.1°C 38.2°F3.4°C 83% 5.0 mph SE8.0 kmh SE 9.0 mph14.5 kmh 29.31 in992.6 mb 0.00 in0.0 mm 0.00 in0.0 mm 0.25 in6.4 mm
10:25 PM 43.0°F6.1°C 38.2°F3.4°C 83% 9.0 mph SE14.5 kmh SE 12.0 mph19.3 kmh 29.30 in992.2 mb 0.00 in0.0 mm 0.00 in0.0 mm 0.25 in6.4 mm
10:30 PM 42.9°F6.1°C 38.1°F3.4°C 83% 3.0 mph SE4.8 kmh SE 12.0 mph19.3 kmh 29.31 in992.6 mb 0.00 in0.0 mm 0.00 in0.0 mm 0.25 in6.4 mm
10:35 PM 42.8°F6.0°C 38.0°F3.3°C 83% 5.0 mph SE8.0 kmh SE 9.0 mph14.5 kmh 29.31 in992.6 mb 0.00 in0.0 mm 0.00 in0.0 mm 0.25 in6.4 mm
10:40 PM 42.8°F6.0°C 38.0°F3.3°C 83% 4.0 mph SE6.4 kmh SE 10.0 mph16.1 kmh 29.32 in992.9 mb 0.00 in0.0 mm 0.00 in0.0 mm 0.25 in6.4 mm
10:45 PM 42.8°F6.0°C 38.3°F3.5°C 84% 6.0 mph SSE9.7 kmh SSE 12.0 mph19.3 kmh 29.32 in992.9 mb 0.00 in0.0 mm 0.00 in0.0 mm 0.25 in6.4 mm
10:50 PM 42.8°F6.0°C 38.3°F3.5°C 84% 10.0 mph SE16.1 kmh SE 11.0 mph17.7 kmh 29.32 in992.9 mb 0.00 in0.0 mm 0.00 in0.0 mm 0.25 in6.4 mm
10:55 PM 42.8°F6.0°C 38.0°F3.3°C 83% 9.0 mph SSE14.5 kmh SSE 13.0 mph20.9 kmh 29.32 in992.9 mb 0.00 in0.0 mm 0.00 in0.0 mm 0.25 in6.4 mm
11:00 PM 42.8°F6.0°C 38.0°F3.3°C 83% 7.0 mph SE11.3 kmh SE 13.0 mph20.9 kmh 29.33 in993.2 mb 0.00 in0.0 mm 0.00 in0.0 mm 0.25 in6.4 mm
11:05 PM 42.7°F5.9°C 38.2°F3.4°C 84% 8.0 mph SE12.9 kmh SE 11.0 mph17.7 kmh 29.34 in993.6 mb 0.00 in0.0 mm 0.00 in0.0 mm 0.25 in6.4 mm
11:10 PM 42.6°F5.9°C 38.1°F3.4°C 84% 6.0 mph SE9.7 kmh SE 15.0 mph24.1 kmh 29.33 in993.2 mb 0.00 in0.0 mm 0.00 in0.0 mm 0.25 in6.4 mm
11:15 PM 42.6°F5.9°C 38.1°F3.4°C 84% 4.0 mph SE6.4 kmh SE 15.0 mph24.1 kmh 29.34 in993.6 mb 0.00 in0.0 mm 0.00 in0.0 mm 0.25 in6.4 mm
11:20 PM 42.5°F5.8°C 38.3°F3.5°C 85% 5.0 mph S8.0 kmh S 8.0 mph12.9 kmh 29.34 in993.6 mb 0.00 in0.0 mm 0.00 in0.0 mm 0.25 in6.4 mm
11:25 PM 42.4°F5.8°C 38.2°F3.4°C 85% 3.0 mph SE4.8 kmh SE 12.0 mph19.3 kmh 29.34 in993.6 mb 0.00 in0.0 mm 0.00 in0.0 mm 0.25 in6.4 mm
11:30 PM 42.3°F5.7°C 38.4°F3.6°C 86% 7.0 mph SE11.3 kmh SE 12.0 mph19.3 kmh 29.35 in993.9 mb 0.00 in0.0 mm 0.00 in0.0 mm 0.25 in6.4 mm
11:35 PM 42.3°F5.7°C 38.4°F3.6°C 86% 3.0 mph SSE4.8 kmh SSE 10.0 mph16.1 kmh 29.35 in993.9 mb 0.00 in0.0 mm 0.00 in0.0 mm 0.25 in6.4 mm
11:40 PM 42.3°F5.7°C 38.4°F3.6°C 86% 7.0 mph SE11.3 kmh SE 10.0 mph16.1 kmh 29.36 in994.2 mb 0.00 in0.0 mm 0.00 in0.0 mm 0.25 in6.4 mm
11:45 PM 42.3°F5.7°C 38.4°F3.6°C 86% 6.0 mph SE9.7 kmh SE 10.0 mph16.1 kmh 29.36 in994.2 mb 0.00 in0.0 mm 0.00 in0.0 mm 0.25 in6.4 mm
11:50 PM 42.3°F5.7°C 38.4°F3.6°C 86% 4.0 mph SSE6.4 kmh SSE 6.0 mph9.7 kmh 29.37 in994.6 mb 0.00 in0.0 mm 0.00 in0.0 mm 0.25 in6.4 mm
11:55 PM 42.3°F5.7°C 38.4°F3.6°C 86% 6.0 mph SW9.7 kmh SW 7.0 mph11.3 kmh 29.37 in994.6 mb 0.00 in0.0 mm 0.00 in0.0 mm 0.25 in6.4 mm